Terminal Aerodrome Forecast
Issued by NWS Wilmington, OH

Home | Current Version | Previous Version | Text Only | Print | Product List | Glossary On
Versions: 1 2 3 4 5 6 7 8 9 10 11 12 13 14 15 16
000
FTUS41 KILN 272345
TAFILN
TAF
KILN 272345Z 2800/2824 13005KT P6SM BKN060
     FM280300 16006KT P6SM BKN150
     FM281300 16009KT P6SM VCSH OVC050
     FM281500 18011KT P6SM -SHRA OVC018
     FM281900 19012KT 4SM -SHRA BR OVC007
     FM282200 20012G20KT P6SM OVC007=

USA.gov is the U.S. government's official web portal to all federal, state and local government web resources and services.